createdAt,value
2018-07-08T00:02:00.117Z,7.40
2018-07-08T00:04:30.247Z,6.03
2018-07-08T00:07:00.151Z,6.80
2018-07-08T00:09:30.219Z,7.30
2018-07-08T00:12:00.281Z,7.10
2018-07-08T00:14:30.156Z,7.10
2018-07-08T00:17:00.241Z,6.53
2018-07-08T00:19:30.398Z,6.65
2018-07-08T00:22:00.254Z,7.23
2018-07-08T00:24:30.521Z,7.27
2018-07-08T00:27:00.509Z,6.95
2018-07-08T00:29:30.407Z,7.17
2018-07-08T00:32:00.320Z,6.83
2018-07-08T00:57:05.777Z,7.77
2018-07-08T00:59:35.499Z,7.07
2018-07-08T01:02:04.706Z,6.80
2018-07-08T01:04:33.784Z,7.17
2018-07-08T01:07:02.930Z,6.83
2018-07-08T01:09:32.039Z,7.70
2018-07-08T01:12:01.222Z,6.90
2018-07-08T01:14:30.896Z,7.37
2018-07-08T01:17:00.852Z,8.25
2018-07-08T01:19:31.790Z,7.77
2018-07-08T01:22:01.009Z,7.07
2018-07-08T01:24:31.188Z,7.30
2018-07-08T01:27:00.902Z,7.20
2018-07-08T01:29:30.251Z,8.47
2018-07-08T01:31:59.290Z,8.00
2018-07-08T01:34:28.326Z,8.87
2018-07-08T01:36:57.381Z,7.77
2018-07-08T01:39:26.864Z,8.30
2018-07-08T01:41:56.114Z,7.93
2018-07-08T01:44:25.719Z,8.30
2018-07-08T01:46:54.701Z,8.33
2018-07-08T01:49:24.231Z,8.03
2018-07-08T01:51:53.814Z,8.33
2018-07-08T01:54:23.221Z,8.07
2018-07-08T01:56:52.719Z,7.00
2018-07-08T01:59:21.887Z,8.07
2018-07-08T02:01:51.335Z,8.23
2018-07-08T02:04:20.899Z,8.53
2018-07-08T02:06:49.937Z,7.87
2018-07-08T02:09:19.489Z,7.83
2018-07-08T02:11:49.172Z,7.20
2018-07-08T02:14:18.203Z,7.87
2018-07-08T02:16:47.599Z,8.23
2018-07-08T02:19:17.347Z,7.17
2018-07-08T02:21:46.809Z,8.18
2018-07-08T02:24:16.073Z,8.00
2018-07-08T02:26:45.169Z,7.60
2018-07-08T02:29:14.321Z,7.80
2018-07-08T02:31:43.703Z,6.70
2018-07-08T02:34:12.848Z,6.80
2018-07-08T02:36:41.943Z,6.50
2018-07-08T02:39:10.981Z,7.35
2018-07-08T02:41:40.040Z,7.50
2018-07-08T02:44:09.094Z,7.37
2018-07-08T02:46:38.166Z,7.50
2018-07-08T02:49:07.220Z,7.15
2018-07-08T02:51:36.548Z,7.90
2018-07-08T02:54:05.608Z,7.30
2018-07-08T02:56:34.743Z,7.27
2018-07-08T02:59:03.924Z,7.70
2018-07-08T03:01:33.156Z,7.07
2018-07-08T03:04:03.126Z,7.50
2018-07-08T03:06:33.161Z,8.15
2018-07-08T03:09:03.180Z,7.50
2018-07-08T03:11:33.300Z,7.28
2018-07-08T03:14:03.204Z,7.43
2018-07-08T03:16:33.280Z,7.00
2018-07-08T03:19:03.197Z,7.40
2018-07-08T03:21:33.308Z,7.13
2018-07-08T03:24:03.496Z,7.10
2018-07-08T03:26:33.352Z,7.40
2018-07-08T03:29:03.642Z,6.70
2018-07-08T03:31:33.606Z,7.50
2018-07-08T03:34:03.896Z,7.92
2018-07-08T03:36:33.431Z,7.33
2018-07-08T03:39:03.861Z,7.80
2018-07-08T03:41:33.571Z,8.13
2018-07-08T03:44:03.976Z,8.95
2018-07-08T03:46:34.302Z,9.20
2018-07-08T03:49:03.992Z,8.37
2018-07-08T03:51:33.854Z,7.22
2018-07-08T03:54:03.974Z,7.65
2018-07-08T03:56:33.550Z,8.20
2018-07-08T04:18:22.689Z,7.70
2018-07-08T04:20:52.065Z,7.60
2018-07-08T04:23:21.137Z,8.70
2018-07-08T04:25:50.185Z,7.90
2018-07-08T04:28:19.229Z,8.40
2018-07-08T04:30:48.264Z,8.38
2018-07-08T04:33:17.270Z,8.05
2018-07-08T04:35:46.360Z,8.40
2018-07-08T04:38:15.400Z,8.43
2018-07-08T04:40:44.834Z,9.18
2018-07-08T04:43:14.013Z,8.55
2018-07-08T04:45:43.544Z,8.20
2018-07-08T04:48:12.921Z,7.87
2018-07-08T04:50:42.128Z,8.10
2018-07-08T04:53:11.221Z,8.60
2018-07-08T04:55:40.239Z,8.93
2018-07-08T04:58:09.295Z,9.23
2018-07-08T05:01:09.039Z,9.83
2018-07-08T05:03:38.105Z,9.67
2018-07-08T05:06:08.644Z,9.73
2018-07-08T05:08:37.758Z,10.10
2018-07-08T05:11:07.003Z,9.93
2018-07-08T05:13:36.209Z,9.57
2018-07-08T05:16:05.416Z,9.60
2018-07-08T05:18:34.464Z,10.20
2018-07-08T05:21:04.569Z,10.32
2018-07-08T05:23:34.423Z,10.15
2018-07-08T05:26:04.551Z,9.67
2018-07-08T05:28:34.473Z,10.20
2018-07-08T05:31:04.428Z,8.63
2018-07-08T05:33:34.479Z,8.83
2018-07-08T05:36:04.697Z,9.57
2018-07-08T05:38:34.521Z,9.90
2018-07-08T05:41:04.577Z,9.40
2018-07-08T05:43:33.618Z,9.03
2018-07-08T05:46:02.662Z,8.78
2018-07-08T05:48:32.138Z,9.40
2018-07-08T05:51:01.259Z,9.33
2018-07-08T05:53:30.710Z,8.60
2018-07-08T05:55:59.776Z,9.33
2018-07-08T05:58:29.368Z,8.67
2018-07-08T06:00:58.804Z,7.80
2018-07-08T06:03:28.325Z,9.27
2018-07-08T06:05:57.692Z,7.43
2018-07-08T06:08:26.808Z,8.87
2018-07-08T06:10:55.880Z,7.60
2018-07-08T06:13:25.009Z,7.97
2018-07-08T06:15:54.116Z,7.40
2018-07-08T06:18:23.208Z,7.47
2018-07-08T06:20:52.429Z,8.20
2018-07-08T06:23:22.167Z,7.60
2018-07-08T06:25:52.834Z,7.10
2018-07-08T06:28:23.555Z,7.40
2018-07-08T06:30:54.257Z,8.00
2018-07-08T06:33:24.922Z,7.60
2018-07-08T06:35:55.268Z,6.90
2018-07-08T06:38:25.639Z,6.00
2018-07-08T06:40:56.347Z,6.93
2018-07-08T06:43:26.910Z,7.10
2018-07-08T06:45:57.238Z,6.87
2018-07-08T06:48:28.122Z,5.60
2018-07-08T06:50:58.896Z,5.30
2018-07-08T06:53:29.612Z,5.13
2018-07-08T06:56:00.371Z,5.67
2018-07-08T06:58:32.004Z,5.93
2018-07-08T07:01:02.516Z,5.90
2018-07-08T07:03:32.837Z,4.67
2018-07-08T07:06:03.524Z,6.70
2018-07-08T07:08:34.315Z,6.30
2018-07-08T07:11:05.352Z,5.57
2018-07-08T07:13:36.310Z,5.47
2018-07-08T07:16:08.079Z,4.90
2018-07-08T07:18:38.216Z,4.00
2018-07-08T07:21:08.996Z,3.80
2018-07-08T07:23:39.172Z,4.20
2018-07-08T07:26:09.513Z,4.23
2018-07-08T07:28:40.126Z,3.83
2018-07-08T07:32:21.548Z,3.57
2018-07-08T07:34:51.422Z,3.95
2018-07-08T07:37:22.176Z,3.80
2018-07-08T07:39:52.746Z,4.30
2018-07-08T07:42:23.189Z,4.17
2018-07-08T07:44:53.529Z,4.12
2018-07-08T07:47:24.266Z,3.90
2018-07-08T07:49:54.572Z,4.00
2018-07-08T07:52:25.369Z,4.30
2018-07-08T07:54:55.633Z,3.60
2018-07-08T07:57:25.960Z,4.30
2018-07-08T07:59:56.300Z,4.10
2018-07-08T08:02:27.063Z,3.80
2018-07-08T08:05:01.052Z,4.23
2018-07-08T08:07:31.057Z,3.60
2018-07-08T08:10:01.682Z,4.00
2018-07-08T08:12:31.962Z,3.83
2018-07-08T08:15:02.603Z,3.80
2018-07-08T08:17:33.255Z,3.87
2018-07-08T08:20:03.894Z,3.10
2018-07-08T08:22:34.125Z,3.40
2018-07-08T08:25:04.764Z,3.43
2018-07-08T08:27:35.660Z,3.53
2018-07-08T08:30:06.427Z,3.33
2018-07-08T08:32:37.958Z,3.23
2018-07-08T08:35:10.508Z,3.43
2018-07-08T08:37:41.918Z,2.83
2018-07-08T08:40:12.894Z,3.17
2018-07-08T08:42:43.338Z,3.20
2018-07-08T08:45:14.660Z,3.47
2018-07-08T08:47:44.848Z,3.10
2018-07-08T08:50:15.893Z,3.50
2018-07-08T08:52:46.513Z,3.12
2018-07-08T08:55:16.936Z,3.62
2018-07-08T08:57:47.347Z,3.25
2018-07-08T09:00:18.675Z,3.25
2018-07-08T09:02:49.210Z,3.30
2018-07-08T09:05:19.919Z,3.90
2018-07-08T09:07:50.972Z,3.42
2018-07-08T09:10:21.460Z,3.10
2018-07-08T09:12:51.533Z,2.97
2018-07-08T09:15:22.126Z,3.27
2018-07-08T09:17:53.083Z,3.17
2018-07-08T09:20:23.467Z,3.50
2018-07-08T09:22:55.531Z,2.93
2018-07-08T09:25:25.371Z,3.23
2018-07-08T09:27:56.137Z,3.40
2018-07-08T09:30:25.995Z,3.20
2018-07-08T09:32:56.388Z,3.53
2018-07-08T09:35:27.554Z,3.80
2018-07-08T09:37:58.200Z,3.27
2018-07-08T09:40:28.435Z,2.93
2018-07-08T09:42:59.104Z,3.50
2018-07-08T09:45:30.919Z,3.30
2018-07-08T09:48:01.903Z,3.77
2018-07-08T09:50:32.029Z,3.77
2018-07-08T09:53:02.231Z,3.20
2018-07-08T09:55:32.966Z,3.40
2018-07-08T09:58:03.467Z,3.40
2018-07-08T10:00:33.905Z,3.47
2018-07-08T10:03:04.700Z,3.40
2018-07-08T10:05:36.077Z,3.53
2018-07-08T10:08:07.276Z,3.30
2018-07-08T10:10:38.743Z,3.40
2018-07-08T10:13:09.052Z,3.33
2018-07-08T10:15:39.692Z,3.43
2018-07-08T10:18:09.970Z,4.10
2018-07-08T10:20:40.618Z,3.50
2018-07-08T10:23:11.408Z,4.13
2018-07-08T10:25:43.273Z,4.03
2018-07-08T10:28:18.937Z,3.83
2018-07-08T10:30:49.789Z,4.40
2018-07-08T10:33:20.405Z,4.40
2018-07-08T10:36:05.149Z,4.10
2018-07-08T10:38:36.455Z,4.23
2018-07-08T10:41:06.937Z,3.37
2018-07-08T10:43:37.964Z,4.50
2018-07-08T10:46:09.005Z,4.23
2018-07-08T10:48:39.604Z,4.57
2018-07-08T10:51:10.330Z,4.27
2018-07-08T10:53:41.117Z,3.43
2018-07-08T10:56:11.848Z,3.53
2018-07-08T10:58:42.308Z,2.90
2018-07-08T11:01:12.985Z,3.03
2018-07-08T11:03:43.377Z,3.40
2018-07-08T11:06:13.657Z,2.97
2018-07-08T11:08:44.339Z,3.12
2018-07-08T11:11:14.956Z,3.00
2018-07-08T11:13:45.730Z,2.70
2018-07-08T11:16:16.559Z,2.83
2018-07-08T11:18:47.231Z,2.90
2018-07-08T11:21:17.646Z,3.43
2018-07-08T11:23:48.279Z,2.90
2018-07-08T11:26:19.009Z,2.97
2018-07-08T11:31:34.153Z,2.57
2018-07-08T11:34:04.959Z,3.30
2018-07-08T11:36:35.656Z,2.80
2018-07-08T11:39:07.441Z,3.47
2018-07-08T11:41:38.214Z,3.03
2018-07-08T11:44:09.082Z,3.67
2018-07-08T11:46:39.827Z,2.90
2018-07-08T11:49:10.279Z,2.47
2018-07-08T11:51:40.584Z,2.40
2018-07-08T11:54:11.716Z,2.97
2018-07-08T11:56:42.354Z,2.83
2018-07-08T11:59:13.376Z,2.30
2018-07-08T12:01:43.999Z,3.08
2018-07-08T12:04:14.720Z,2.60
2018-07-08T12:06:45.298Z,2.80
2018-07-08T12:09:16.014Z,2.45
2018-07-08T12:11:46.522Z,2.40
2018-07-08T12:14:17.639Z,2.30
2018-07-08T12:16:48.203Z,2.60
2018-07-08T12:19:18.666Z,3.05
2018-07-08T12:21:49.038Z,2.80
2018-07-08T12:24:19.306Z,2.53
2018-07-08T12:26:49.958Z,2.50
2018-07-08T12:29:20.460Z,2.17
2018-07-08T12:31:52.709Z,2.63
2018-07-08T12:34:23.416Z,2.40
2018-07-08T12:36:54.295Z,2.40
2018-07-08T12:39:24.858Z,2.00
2018-07-08T12:41:55.277Z,2.33
2018-07-08T12:44:26.174Z,2.25
2018-07-08T12:46:56.993Z,2.60
2018-07-08T12:49:27.381Z,2.17
2018-07-08T12:51:58.134Z,2.50
2018-07-08T12:54:29.015Z,2.40
2018-07-08T12:56:59.737Z,2.80
2018-07-08T12:59:30.541Z,2.40
2018-07-08T13:02:01.606Z,2.80
2018-07-08T13:04:32.455Z,2.37
2018-07-08T13:07:03.201Z,2.60
2018-07-08T13:09:34.247Z,2.10
2018-07-08T13:12:04.915Z,2.80
2018-07-08T13:14:35.586Z,2.40
2018-07-08T13:17:06.389Z,2.57
2018-07-08T13:19:36.785Z,1.97
2018-07-08T13:22:07.651Z,2.17
2018-07-08T13:24:38.926Z,2.07
2018-07-08T13:27:09.080Z,1.97
2018-07-08T13:29:39.427Z,2.40
2018-07-08T13:32:09.785Z,1.97
2018-07-08T13:34:39.616Z,1.70
2018-07-08T13:37:10.343Z,2.00
2018-07-08T13:39:41.534Z,1.70
2018-07-08T13:42:12.166Z,2.00
2018-07-08T13:44:42.850Z,1.90
2018-07-08T13:47:13.754Z,1.83
2018-07-08T13:49:44.363Z,1.93
2018-07-08T13:52:15.453Z,1.77
2018-07-08T13:54:46.900Z,1.70
2018-07-08T13:57:16.985Z,1.75
2018-07-08T13:59:47.617Z,1.63
2018-07-08T14:02:18.153Z,1.80
2018-07-08T14:04:49.854Z,1.50
2018-07-08T14:07:21.152Z,2.00
2018-07-08T14:09:51.811Z,1.65
2018-07-08T14:12:22.364Z,1.87
2018-07-08T14:14:53.181Z,1.80
2018-07-08T14:17:38.292Z,1.80
2018-07-08T14:20:09.305Z,1.90
2018-07-08T14:22:39.317Z,2.02
2018-07-08T14:25:09.713Z,1.70
2018-07-08T14:27:40.291Z,1.50
2018-07-08T14:30:11.119Z,1.70
2018-07-08T14:32:41.863Z,1.60
2018-07-08T14:35:12.571Z,1.57
2018-07-08T14:37:43.367Z,1.30
2018-07-08T14:40:13.317Z,1.73
2018-07-08T14:42:43.992Z,1.60
2018-07-08T14:45:14.505Z,1.50
2018-07-08T14:47:44.939Z,1.67
2018-07-08T14:50:15.797Z,1.20
2018-07-08T14:52:46.195Z,1.70
2018-07-08T14:55:16.810Z,1.25
2018-07-08T14:57:47.592Z,1.55
2018-07-08T15:00:18.308Z,1.30
2018-07-08T15:02:49.799Z,1.50
2018-07-08T15:05:20.249Z,1.42
2018-07-08T15:20:44.606Z,1.50
2018-07-08T15:23:15.240Z,1.20
2018-07-08T15:25:46.210Z,1.20
2018-07-08T15:28:17.276Z,1.45
2018-07-08T15:30:47.732Z,1.60
2018-07-08T15:33:18.348Z,1.30
2018-07-08T15:35:49.094Z,1.50
2018-07-08T15:38:19.523Z,1.37
2018-07-08T15:40:50.166Z,1.40
2018-07-08T15:43:20.116Z,1.30
2018-07-08T15:45:50.550Z,1.50
2018-07-08T15:48:20.518Z,1.20
2018-07-08T15:50:51.516Z,1.35
2018-07-08T15:53:21.565Z,1.20
2018-07-08T15:55:52.176Z,0.98
2018-07-08T15:58:22.527Z,1.17
2018-07-08T16:00:53.166Z,1.60
2018-07-08T16:03:23.585Z,1.10
2018-07-08T16:05:54.358Z,1.20
2018-07-08T16:08:25.847Z,1.07
2018-07-08T16:10:56.643Z,1.20
2018-07-08T16:13:27.312Z,1.33
2018-07-08T16:15:57.721Z,1.17
2018-07-08T16:18:28.824Z,1.00
2018-07-08T16:20:59.892Z,1.20
2018-07-08T16:23:30.319Z,1.03
2018-07-08T16:26:00.789Z,1.12
2018-07-08T16:28:32.590Z,1.12
2018-07-08T16:31:03.254Z,1.20
2018-07-08T16:33:34.312Z,1.20
2018-07-08T16:36:05.448Z,1.23
2018-07-08T16:38:36.347Z,1.10
2018-07-08T16:41:07.016Z,1.10
2018-07-08T16:43:37.287Z,1.40
2018-07-08T16:46:08.555Z,1.10
2018-07-08T16:48:38.918Z,1.30
2018-07-08T16:51:09.664Z,1.47
2018-07-08T16:53:41.680Z,1.53
2018-07-08T16:56:12.838Z,1.30
2018-07-08T16:58:43.463Z,1.80
2018-07-08T17:01:14.212Z,1.30
2018-07-08T17:03:44.850Z,1.07
2018-07-08T17:06:15.201Z,1.50
2018-07-08T17:08:45.596Z,1.50
2018-07-08T17:11:16.820Z,1.30
2018-07-08T17:13:47.858Z,1.47
2018-07-08T17:16:18.247Z,1.40
2018-07-08T17:18:48.903Z,1.60
2018-07-08T17:21:19.553Z,1.30
2018-07-08T17:23:49.982Z,1.20
2018-07-08T17:26:20.426Z,1.20
2018-07-08T17:28:51.329Z,1.40
2018-07-08T17:31:22.181Z,1.30
2018-07-08T17:33:52.504Z,6.00
2018-07-08T17:36:23.187Z,2.00
2018-07-08T17:38:53.539Z,1.37
2018-07-08T17:41:24.979Z,1.50
2018-07-08T17:43:55.672Z,1.20
2018-07-08T17:46:25.825Z,1.40
2018-07-08T17:48:56.553Z,1.60
2018-07-08T17:51:27.246Z,1.40
2018-07-08T17:53:57.456Z,1.40
2018-07-08T17:56:28.865Z,1.40
2018-07-08T17:58:59.740Z,1.40
2018-07-08T18:01:30.600Z,1.30
2018-07-08T18:04:00.646Z,1.37
2018-07-08T18:06:31.256Z,1.43
2018-07-08T18:09:02.099Z,1.50
2018-07-08T18:11:32.688Z,1.50
2018-07-08T18:14:03.030Z,1.50
2018-07-08T18:16:33.424Z,1.47
2018-07-08T18:19:04.793Z,1.33
2018-07-08T18:21:35.612Z,1.60
2018-07-08T18:24:06.518Z,1.60
2018-07-08T18:26:37.013Z,1.30
2018-07-08T18:29:07.375Z,1.52
2018-07-08T18:31:41.049Z,1.50
2018-07-08T18:34:11.692Z,1.43
2018-07-08T18:36:42.098Z,1.43
2018-07-08T18:39:12.700Z,1.33
2018-07-08T18:41:43.221Z,1.30
2018-07-08T18:44:13.909Z,1.37
2018-07-08T18:46:44.379Z,1.47
2018-07-08T18:49:14.649Z,1.30
2018-07-08T18:51:45.214Z,1.50
2018-07-08T18:54:16.340Z,1.30
2018-07-08T18:59:23.314Z,1.53
2018-07-08T19:01:53.923Z,1.40
2018-07-08T19:04:24.619Z,1.50
2018-07-08T19:06:55.525Z,1.40
2018-07-08T19:09:26.719Z,1.35
2018-07-08T19:11:56.987Z,1.57
2018-07-08T19:14:27.735Z,1.53
2018-07-08T19:16:58.327Z,1.47
2018-07-08T19:19:29.194Z,1.50
2018-07-08T19:22:00.422Z,1.50
2018-07-08T19:24:30.923Z,1.40
2018-07-08T19:27:01.823Z,1.70
2018-07-08T19:29:32.389Z,1.82
2018-07-08T19:32:04.014Z,1.90
2018-07-08T19:34:34.471Z,1.32
2018-07-08T19:37:05.613Z,1.52
2018-07-08T19:39:36.148Z,1.67
2018-07-08T19:42:06.596Z,1.90
2018-07-08T19:44:37.357Z,1.67
2018-07-08T19:47:08.480Z,1.60
2018-07-08T19:49:39.632Z,1.70
2018-07-08T19:52:09.972Z,1.50
2018-07-08T19:54:40.278Z,1.80
2018-07-08T19:57:11.463Z,1.53
2018-07-08T19:59:42.153Z,1.70
2018-07-08T20:02:13.046Z,1.40
2018-07-08T20:04:43.829Z,1.90
2018-07-08T20:07:14.350Z,1.60
2018-07-08T20:09:44.618Z,2.15
2018-07-08T20:12:15.058Z,1.90
2018-07-08T20:14:45.950Z,1.90
2018-07-08T20:17:16.530Z,1.83
2018-07-08T20:19:47.016Z,1.73
2018-07-08T20:22:17.435Z,1.63
2018-07-08T20:24:48.097Z,1.60
2018-07-08T20:27:18.803Z,1.70
2018-07-08T20:29:49.584Z,1.87
2018-07-08T20:32:20.309Z,1.93
2018-07-08T20:34:51.058Z,1.80
2018-07-08T20:37:21.545Z,2.13
2018-07-08T20:39:53.216Z,2.13
2018-07-08T20:42:23.790Z,1.80
2018-07-08T20:44:54.623Z,2.00
2018-07-08T20:47:24.945Z,2.00
2018-07-08T20:49:55.673Z,1.77
2018-07-08T20:52:26.625Z,2.17
2018-07-08T20:54:57.545Z,1.77
2018-07-08T20:57:28.686Z,1.90
2018-07-08T20:59:59.653Z,2.30
2018-07-08T21:02:30.465Z,2.07
2018-07-08T21:05:01.078Z,2.30
2018-07-08T21:07:32.062Z,2.30
2018-07-08T21:10:03.813Z,2.00
2018-07-08T21:12:34.381Z,2.40
2018-07-08T21:15:05.590Z,2.60
2018-07-08T21:17:36.418Z,2.27
2018-07-08T21:20:06.971Z,2.40
2018-07-08T21:22:37.760Z,2.00
2018-07-08T21:25:08.545Z,2.60
2018-07-08T21:27:39.340Z,2.70
2018-07-08T21:30:10.183Z,2.80
2018-07-08T21:32:40.844Z,3.15
2018-07-08T21:35:12.019Z,3.10
2018-07-08T21:37:42.509Z,2.60
2018-07-08T21:40:13.226Z,2.20
2018-07-08T21:42:43.893Z,2.70
2018-07-08T21:45:15.055Z,2.53
2018-07-08T21:47:45.869Z,2.03
2018-07-08T21:50:16.881Z,2.10
2018-07-08T21:52:47.582Z,2.53
2018-07-08T21:55:18.698Z,2.47
2018-07-08T21:57:49.028Z,2.53
2018-07-08T22:00:20.177Z,2.20
2018-07-08T22:02:50.423Z,2.23
2018-07-08T22:05:21.090Z,2.40
2018-07-08T22:07:56.740Z,2.03
2018-07-08T22:10:30.332Z,2.30
2018-07-08T22:13:02.201Z,2.08
2018-07-08T22:15:32.891Z,2.55
2018-07-08T22:18:03.520Z,2.53
2018-07-08T22:20:34.193Z,2.42
2018-07-08T22:23:04.427Z,2.23
2018-07-08T22:25:34.876Z,2.27
2018-07-08T22:28:05.356Z,2.10
2018-07-08T22:30:36.129Z,2.42
2018-07-08T22:33:07.343Z,2.77
2018-07-08T22:35:38.129Z,2.40
2018-07-08T22:38:08.997Z,2.30
2018-07-08T22:40:39.701Z,2.15
2018-07-08T22:43:10.649Z,2.20
2018-07-08T22:45:41.468Z,2.30
2018-07-08T22:48:12.389Z,2.40
2018-07-08T22:50:42.752Z,2.47
2018-07-08T22:53:13.354Z,2.40
2018-07-08T22:55:44.116Z,2.20
2018-07-08T22:58:14.838Z,2.10
2018-07-08T23:00:55.391Z,2.00
2018-07-08T23:03:57.683Z,2.60
2018-07-08T23:06:28.922Z,2.20
2018-07-08T23:08:59.447Z,2.57
2018-07-08T23:11:30.300Z,2.00
2018-07-08T23:14:01.636Z,2.47
2018-07-08T23:16:32.093Z,2.53
2018-07-08T23:19:02.694Z,2.30
2018-07-08T23:21:32.593Z,2.30
2018-07-08T23:24:03.239Z,2.60
2018-07-08T23:26:33.632Z,2.10
2018-07-08T23:29:04.348Z,2.50
2018-07-08T23:31:34.683Z,2.40
2018-07-08T23:34:05.374Z,2.10
2018-07-08T23:36:35.336Z,2.30
2018-07-08T23:39:06.071Z,2.50
2018-07-08T23:41:36.842Z,2.33
2018-07-08T23:44:07.396Z,2.10
2018-07-08T23:46:38.152Z,2.20
2018-07-08T23:49:09.088Z,2.33
2018-07-08T23:51:39.412Z,2.50
2018-07-08T23:54:10.079Z,2.50
2018-07-08T23:56:40.752Z,2.50
2018-07-08T23:59:11.283Z,2.23
